Time;durP1;ratioP1;P1;durP2;ratioP2;P2;SDS_P1;SDS_P2;PMS_P1;PMS_P2;Temp;Humidity;BMP_temperature;BMP_pressure;BME280_temperature;BME280_humidity;BME280_pressure;Samples;Min_cycle;Max_cycle;Signal;HPM_P1;HPM_P2
2023/03/24 00:00:14;;;;;;;1.65;0.45;;;17.90;72.70;;;;;;5053166;28;20036;-70
2023/03/24 00:02:41;;;;;;;0.60;0.40;;;17.90;72.70;;;;;;5052915;28;20044;-70
2023/03/24 00:05:09;;;;;;;1.30;0.40;;;17.90;72.80;;;;;;5053149;28;20029;-70
2023/03/24 00:07:37;;;;;;;0.73;0.52;;;17.90;72.70;;;;;;5053233;28;20120;-70
2023/03/24 00:10:09;;;;;;;0.80;0.30;;;17.90;72.80;;;;;;5036570;28;20483;-70
2023/03/24 00:12:37;;;;;;;1.45;0.65;;;17.90;72.80;;;;;;5052717;28;20029;-70
2023/03/24 00:15:08;;;;;;;0.30;0.30;;;17.90;72.90;;;;;;5052647;28;20519;-70
2023/03/24 00:17:35;;;;;;;0.52;0.40;;;17.90;72.90;;;;;;5052875;28;20025;-70
2023/03/24 00:20:13;;;;;;;2.60;0.70;;;17.90;72.90;;;;;;5053854;28;20438;-70
2023/03/24 00:22:41;;;;;;;1.02;0.45;;;17.90;73.00;;;;;;5052688;28;20021;-70
2023/03/24 00:25:10;;;;;;;0.90;0.50;;;17.90;73.00;;;;;;5052621;28;20021;-70
2023/03/24 00:27:36;;;;;;;1.00;0.47;;;17.90;73.10;;;;;;5053613;28;20024;-70
2023/03/24 00:30:05;;;;;;;1.23;0.40;;;17.90;73.10;;;;;;5052620;28;20043;-70
2023/03/24 00:32:31;;;;;;;1.42;0.38;;;17.80;73.10;;;;;;5052112;28;20538;-70
2023/03/24 00:34:57;;;;;;;1.58;0.50;;;17.90;73.20;;;;;;5053703;28;20021;-70
2023/03/24 00:37:23;;;;;;;1.73;0.50;;;17.80;73.20;;;;;;5052438;28;20044;-70
2023/03/24 00:39:49;;;;;;;0.45;0.38;;;17.80;73.30;;;;;;5053544;28;20416;-70
2023/03/24 00:42:15;;;;;;;1.33;0.57;;;17.80;73.40;;;;;;5053236;28;20120;-70
2023/03/24 00:44:43;;;;;;;0.55;0.30;;;17.80;73.50;;;;;;5053502;28;20025;-70
2023/03/24 00:47:09;;;;;;;1.25;0.75;;;17.80;73.70;;;;;;5052166;28;20032;-70
2023/03/24 00:49:41;;;;;;;2.67;0.70;;;17.80;73.60;;;;;;5052184;28;20028;-70
2023/03/24 00:52:32;;;;;;;1.02;0.60;;;17.80;73.60;;;;;;5052094;28;20417;-70
2023/03/24 00:55:00;;;;;;;1.67;0.40;;;17.80;73.50;;;;;;5052098;28;20029;-70
2023/03/24 00:57:28;;;;;;;1.45;0.50;;;17.80;73.70;;;;;;5052025;28;20096;-70
2023/03/24 00:59:54;;;;;;;1.20;0.43;;;17.70;73.60;;;;;;5035497;28;20028;-70
2023/03/24 01:02:23;;;;;;;1.88;0.40;;;17.80;73.70;;;;;;5052008;28;20021;-70
2023/03/24 01:04:56;;;;;;;0.60;0.43;;;17.80;73.70;;;;;;5051983;28;20029;-70
2023/03/24 01:07:22;;;;;;;1.08;0.45;;;17.80;73.70;;;;;;5051947;28;20104;-70
2023/03/24 01:09:56;;;;;;;1.20;0.55;;;17.80;73.60;;;;;;5051552;28;20493;-70
2023/03/24 01:12:35;;;;;;;1.75;0.52;;;17.80;73.70;;;;;;5051947;28;20025;-69
2023/03/24 01:15:04;;;;;;;1.88;0.50;;;17.80;73.70;;;;;;5035088;28;20116;-69
2023/03/24 01:17:30;;;;;;;3.47;0.70;;;17.80;73.90;;;;;;5048080;28;20079;-70
2023/03/24 01:19:56;;;;;;;1.17;0.50;;;17.80;73.90;;;;;;5048172;28;20436;-70
2023/03/24 01:22:22;;;;;;;3.28;0.70;;;17.80;73.90;;;;;;5064728;28;20022;-70
2023/03/24 01:24:48;;;;;;;1.75;0.40;;;17.80;73.90;;;;;;5065108;28;20037;-70
2023/03/24 01:27:14;;;;;;;0.88;0.40;;;17.70;73.90;;;;;;5047743;28;20095;-70
2023/03/24 01:29:40;;;;;;;7.25;0.80;;;17.70;73.80;;;;;;5032863;28;20057;-70
2023/03/24 01:32:06;;;;;;;1.00;0.50;;;17.70;73.80;;;;;;5064873;28;20040;-70
2023/03/24 01:34:32;;;;;;;2.65;0.50;;;17.70;73.90;;;;;;5047797;28;20021;-70
2023/03/24 01:36:58;;;;;;;1.45;0.60;;;17.80;73.90;;;;;;5032875;28;20032;-70
2023/03/24 01:39:24;;;;;;;2.03;0.63;;;17.70;74.00;;;;;;5064632;28;20018;-70
2023/03/24 01:41:50;;;;;;;1.13;0.60;;;17.70;73.90;;;;;;5032597;28;20505;-70
2023/03/24 01:44:36;;;;;;;2.47;0.50;;;17.70;74.00;;;;;;5063757;28;20432;-70
2023/03/24 01:47:05;;;;;;;1.70;0.60;;;17.70;73.90;;;;;;5047345;28;20508;-70
2023/03/24 01:49:36;;;;;;;1.42;0.57;;;17.70;74.00;;;;;;5064562;28;20032;-70
2023/03/24 01:52:03;;;;;;;1.50;0.47;;;17.70;74.00;;;;;;5050962;28;20044;-70
2023/03/24 01:54:41;;;;;;;1.02;0.52;;;17.70;74.00;;;;;;5050960;28;20021;-70
2023/03/24 01:57:11;;;;;;;1.25;0.60;;;17.70;73.80;;;;;;5051166;28;20025;-70
2023/03/24 01:59:39;;;;;;;1.45;0.60;;;17.70;73.90;;;;;;5051239;28;20017;-70
2023/03/24 02:02:05;;;;;;;2.38;0.88;;;17.70;74.00;;;;;;5051017;28;20032;-70
2023/03/24 02:04:34;;;;;;;1.65;1.00;;;17.70;73.90;;;;;;5051069;28;20113;-70
2023/03/24 02:07:30;;;;;;;1.00;0.40;;;17.70;73.90;;;;;;5052312;28;20104;-70
2023/03/24 02:09:55;;;;;;;1.38;0.60;;;17.70;73.90;;;;;;5042926;28;20083;-70
2023/03/24 02:12:21;;;;;;;2.70;0.60;;;17.70;73.90;;;;;;5050898;28;20028;-70
2023/03/24 02:14:47;;;;;;;1.73;0.68;;;17.70;73.90;;;;;;5050945;28;20029;-70
2023/03/24 02:17:26;;;;;;;1.38;0.47;;;17.70;74.00;;;;;;5050819;28;20021;-70
2023/03/24 02:20:11;;;;;;;1.73;0.40;;;17.70;73.90;;;;;;5050809;28;20021;-70
2023/03/24 02:23:05;;;;;;;2.65;0.80;;;17.70;74.10;;;;;;5050936;28;20509;-70
2023/03/24 02:25:58;;;;;;;0.98;0.45;;;17.60;74.00;;;;;;5052135;28;20104;-70
2023/03/24 02:28:46;;;;;;;;;;;17.60;74.10;;;;;;5051250;28;20071;-70
2023/03/24 02:31:48;;;;;;;0.73;0.40;;;17.60;74.00;;;;;;5050916;28;19905;-70
2023/03/24 02:34:20;;;;;;;2.17;0.60;;;17.60;74.20;;;;;;5050846;28;20468;-70
2023/03/24 02:36:51;;;;;;;2.83;0.70;;;17.60;74.30;;;;;;5052171;28;20056;-70
2023/03/24 02:39:26;;;;;;;1.38;0.60;;;17.60;74.30;;;;;;5051474;28;20508;-70
2023/03/24 02:42:10;;;;;;;2.13;0.60;;;17.60;74.30;;;;;;5051947;28;20100;-70
2023/03/24 02:44:46;;;;;;;3.88;0.50;;;17.60;74.30;;;;;;5052033;28;20027;-70
2023/03/24 02:47:21;;;;;;;1.30;0.60;;;17.60;74.30;;;;;;5050660;28;20036;-70
2023/03/24 02:50:02;;;;;;;1.90;1.02;;;17.60;74.40;;;;;;5050560;28;20033;-70
2023/03/24 02:52:35;;;;;;;0.50;0.50;;;17.60;74.50;;;;;;5050080;28;20049;-70
2023/03/24 02:55:14;;;;;;;1.17;0.50;;;17.60;74.50;;;;;;5052759;28;20404;-70
2023/03/24 02:57:47;;;;;;;0.90;0.73;;;17.60;74.40;;;;;;5054486;28;20029;-70
2023/03/24 03:00:31;;;;;;;0.80;0.43;;;17.60;74.40;;;;;;5055751;28;20018;-70
2023/03/24 03:03:20;;;;;;;1.65;0.55;;;17.60;74.30;;;;;;5054413;28;20024;-70
2023/03/24 03:05:58;;;;;;;2.30;0.70;;;17.60;74.30;;;;;;5054161;28;20029;-70
2023/03/24 03:08:25;;;;;;;6.20;0.60;;;17.50;74.50;;;;;;5055150;28;20021;-70
2023/03/24 03:10:51;;;;;;;3.53;0.90;;;17.60;74.60;;;;;;5054290;28;20028;-70
2023/03/24 03:13:22;;;;;;;1.77;0.50;;;17.60;74.60;;;;;;5051169;28;20033;-70
2023/03/24 03:15:50;;;;;;;4.25;0.80;;;17.60;74.50;;;;;;5066834;28;20021;-70
2023/03/24 03:18:19;;;;;;;1.55;0.60;;;17.50;74.60;;;;;;5066763;28;20056;-70
2023/03/24 03:20:52;;;;;;;1.33;0.60;;;17.60;74.70;;;;;;5050433;28;20024;-70
2023/03/24 03:23:49;;;;;;;1.40;0.45;;;17.60;74.60;;;;;;5049840;28;20048;-70
2023/03/24 03:26:16;;;;;;;2.55;0.65;;;17.50;74.50;;;;;;5017505;28;20448;-70
2023/03/24 03:28:48;;;;;;;1.73;0.50;;;17.50;75.00;;;;;;5050305;28;20573;-70
2023/03/24 03:31:15;;;;;;;3.30;0.65;;;17.50;74.70;;;;;;5065324;28;20032;-70
2023/03/24 03:33:45;;;;;;;4.90;0.55;;;17.50;74.70;;;;;;5066997;28;20109;-70
2023/03/24 03:36:16;;;;;;;0.90;0.60;;;17.50;74.80;;;;;;5067005;28;20021;-70
2023/03/24 03:38:46;;;;;;;1.40;0.73;;;17.50;74.90;;;;;;5049989;28;20091;-70
2023/03/24 03:41:11;;;;;;;1.27;0.60;;;17.50;74.90;;;;;;5034649;28;20021;-70
2023/03/24 03:43:37;;;;;;;1.25;0.50;;;17.50;74.90;;;;;;5066898;28;20075;-70
2023/03/24 03:46:03;;;;;;;3.90;0.77;;;17.50;74.90;;;;;;5066964;28;20060;-70
2023/03/24 03:48:29;;;;;;;2.85;0.75;;;17.50;75.00;;;;;;5058288;28;20029;-70
2023/03/24 03:50:54;;;;;;;2.58;0.45;;;17.50;74.90;;;;;;5069684;28;20079;-70
2023/03/24 03:53:22;;;;;;;1.85;0.65;;;17.50;74.90;;;;;;5069896;28;20056;-70
2023/03/24 03:55:48;;;;;;;1.25;0.60;;;17.50;74.80;;;;;;5086870;28;20075;-70
2023/03/24 03:58:14;;;;;;;2.55;0.63;;;17.50;74.80;;;;;;5054576;28;20104;-70
2023/03/24 04:00:40;;;;;;;1.58;0.55;;;17.50;74.80;;;;;;5086634;28;20017;-70
2023/03/24 04:03:28;;;;;;;3.20;0.88;;;17.50;74.70;;;;;;5069769;28;20044;-70
2023/03/24 04:06:05;;;;;;;2.28;0.60;;;17.50;74.60;;;;;;5053836;28;20040;-70
2023/03/24 04:08:31;;;;;;;1.75;0.75;;;17.50;74.70;;;;;;5085983;28;20029;-70
2023/03/24 04:11:21;;;;;;;1.25;0.60;;;17.50;74.70;;;;;;5054409;28;20024;-70
2023/03/24 04:14:11;;;;;;;3.55;0.88;;;17.50;74.70;;;;;;5053832;28;20025;-70
2023/03/24 04:16:38;;;;;;;4.78;0.98;;;17.50;74.70;;;;;;5054126;28;20021;-70
2023/03/24 04:19:16;;;;;;;2.15;0.70;;;17.50;74.80;;;;;;5053792;28;20025;-70
2023/03/24 04:22:03;;;;;;;2.28;0.73;;;17.50;74.70;;;;;;5053070;28;20444;-70
2023/03/24 04:24:50;;;;;;;1.73;0.70;;;17.50;74.80;;;;;;5053913;28;20048;-70
2023/03/24 04:27:26;;;;;;;2.92;0.77;;;17.40;74.70;;;;;;5052765;28;20487;-70
2023/03/24 04:29:58;;;;;;;4.60;0.90;;;17.50;74.90;;;;;;5053667;28;20113;-70
2023/03/24 04:32:40;;;;;;;1.33;0.63;;;17.50;74.90;;;;;;5052544;28;20428;-70
2023/03/24 04:35:30;;;;;;;2.17;0.88;;;17.40;74.80;;;;;;5053531;28;20029;-70
2023/03/24 04:38:08;;;;;;;2.75;0.93;;;17.40;74.90;;;;;;5053901;28;20028;-70
2023/03/24 04:40:35;;;;;;;1.50;0.57;;;17.50;74.90;;;;;;5052464;28;20084;-70
2023/03/24 04:43:03;;;;;;;3.17;0.77;;;17.40;74.90;;;;;;5052309;28;20389;-70
2023/03/24 04:45:32;;;;;;;2.85;0.90;;;17.40;74.90;;;;;;5052284;28;20044;-70
2023/03/24 04:47:59;;;;;;;1.42;0.60;;;17.40;75.10;;;;;;5051978;28;20100;-70
2023/03/24 04:50:31;;;;;;;2.50;0.70;;;17.40;75.10;;;;;;5052003;28;20031;-70
2023/03/24 04:52:57;;;;;;;2.95;0.80;;;17.40;75.10;;;;;;5053265;28;20052;-70
2023/03/24 04:55:50;;;;;;;1.95;0.63;;;17.40;75.10;;;;;;5085482;28;20025;-70
2023/03/24 04:58:16;;;;;;;1.90;0.52;;;17.40;75.20;;;;;;5053499;28;20088;-70
2023/03/24 05:00:45;;;;;;;1.60;0.60;;;17.40;75.20;;;;;;5068736;28;20384;-70
2023/03/24 05:03:12;;;;;;;2.42;0.60;;;17.40;75.20;;;;;;5084612;28;20366;-70
2023/03/24 05:05:42;;;;;;;0.93;0.50;;;17.40;75.20;;;;;;5084667;28;20109;-70
2023/03/24 05:08:08;;;;;;;3.00;0.88;;;17.40;75.30;;;;;;5085638;28;20382;-70
2023/03/24 05:10:34;;;;;;;2.63;0.65;;;17.40;75.30;;;;;;5085423;28;20082;-70
2023/03/24 05:13:00;;;;;;;2.28;0.77;;;17.40;75.30;;;;;;5085037;28;20017;-70
2023/03/24 05:15:26;;;;;;;1.38;0.40;;;17.40;75.30;;;;;;5033080;28;20037;-70
2023/03/24 05:17:51;;;;;;;1.23;0.60;;;17.40;75.30;;;;;;5048010;28;20021;-70
2023/03/24 05:20:17;;;;;;;1.45;0.70;;;17.40;75.50;;;;;;5064926;28;20028;-70
2023/03/24 05:22:44;;;;;;;1.45;0.68;;;17.40;75.50;;;;;;5065005;28;20101;-70
2023/03/24 05:25:09;;;;;;;1.27;0.50;;;17.40;75.50;;;;;;5048251;28;20056;-70
2023/03/24 05:27:35;;;;;;;1.58;0.63;;;17.40;75.60;;;;;;5048162;28;20094;-70
2023/03/24 05:30:01;;;;;;;1.75;0.70;;;17.40;75.60;;;;;;5032829;28;20029;-70
2023/03/24 05:32:26;;;;;;;2.13;0.70;;;17.40;75.60;;;;;;5032428;28;20025;-70
2023/03/24 05:34:52;;;;;;;1.55;0.60;;;17.40;75.60;;;;;;5032695;28;20033;-70
2023/03/24 05:37:18;;;;;;;1.08;0.57;;;17.40;75.60;;;;;;5032804;28;20025;-70
2023/03/24 05:39:43;;;;;;;1.38;0.75;;;17.40;75.60;;;;;;5032511;28;20029;-70
2023/03/24 05:42:09;;;;;;;2.13;0.70;;;17.40;75.70;;;;;;5032623;28;20100;-70
2023/03/24 05:44:35;;;;;;;1.88;0.73;;;17.40;75.70;;;;;;5064708;28;20052;-69
2023/03/24 05:47:01;;;;;;;2.22;0.68;;;17.40;75.70;;;;;;5064456;28;20025;-69
2023/03/24 05:49:27;;;;;;;1.30;0.60;;;17.40;75.80;;;;;;5081036;28;20033;-69
2023/03/24 05:51:52;;;;;;;2.30;0.88;;;17.40;75.70;;;;;;5084624;28;20049;-69
2023/03/24 05:54:18;;;;;;;1.67;0.68;;;17.40;75.70;;;;;;5052188;28;20409;-69
2023/03/24 05:56:44;;;;;;;1.83;0.80;;;17.40;75.60;;;;;;5052339;28;20028;-69
2023/03/24 05:59:10;;;;;;;1.17;0.57;;;17.40;75.60;;;;;;5084580;28;20469;-69
2023/03/24 06:01:36;;;;;;;1.50;0.73;;;17.40;75.50;;;;;;5067566;28;20021;-69
2023/03/24 06:04:02;;;;;;;0.70;0.50;;;17.40;75.50;;;;;;5052325;28;20032;-69
2023/03/24 06:06:27;;;;;;;2.08;0.80;;;17.40;75.50;;;;;;5052035;28;20029;-69
2023/03/24 06:08:53;;;;;;;1.20;0.50;;;17.40;75.60;;;;;;5052412;28;20114;-69
2023/03/24 06:11:19;;;;;;;0.98;0.65;;;17.40;75.60;;;;;;5052058;28;20028;-69
2023/03/24 06:13:44;;;;;;;2.70;0.70;;;17.30;75.50;;;;;;5084355;28;20409;-69
2023/03/24 06:16:11;;;;;;;2.33;0.80;;;17.40;75.50;;;;;;5052007;28;20024;-69
2023/03/24 06:18:39;;;;;;;0.47;0.30;;;17.40;75.50;;;;;;5051910;28;20035;-69
2023/03/24 06:21:05;;;;;;;1.17;0.68;;;17.30;75.50;;;;;;5034661;28;20396;-69
2023/03/24 06:23:32;;;;;;;1.27;0.40;;;17.30;75.50;;;;;;5050937;28;20055;-69
2023/03/24 06:26:00;;;;;;;1.23;0.55;;;17.30;75.50;;;;;;5052095;28;20075;-69
2023/03/24 06:28:29;;;;;;;1.58;0.52;;;17.30;75.50;;;;;;5051007;28;20071;-69
2023/03/24 06:30:55;;;;;;;1.20;0.50;;;17.30;75.50;;;;;;5053330;28;20017;-69
2023/03/24 06:33:24;;;;;;;1.52;0.47;;;17.30;75.50;;;;;;5054952;28;20036;-69
2023/03/24 06:35:51;;;;;;;2.08;0.57;;;17.30;75.50;;;;;;5054711;28;20490;-69
2023/03/24 06:38:16;;;;;;;1.73;0.60;;;17.30;75.70;;;;;;5056087;28;20072;-69
2023/03/24 06:40:42;;;;;;;1.83;0.70;;;17.30;75.70;;;;;;5054668;28;20049;-69
2023/03/24 06:43:08;;;;;;;1.52;0.60;;;17.30;75.80;;;;;;5055823;28;20475;-69
2023/03/24 06:45:35;;;;;;;1.88;0.98;;;17.30;75.90;;;;;;5055564;28;20021;-69
2023/03/24 06:48:01;;;;;;;2.10;0.88;;;17.30;75.90;;;;;;5054582;28;20102;-69
2023/03/24 06:50:31;;;;;;;2.30;0.70;;;17.30;75.90;;;;;;5055442;28;20489;-69
2023/03/24 06:52:58;;;;;;;4.45;0.82;;;17.30;75.90;;;;;;5055540;28;20044;-69
2023/03/24 06:55:24;;;;;;;1.85;0.50;;;17.30;76.00;;;;;;5088058;28;20112;-69
2023/03/24 06:57:49;;;;;;;1.95;0.50;;;17.30;75.50;;;;;;5071039;28;20096;-69
2023/03/24 07:00:15;;;;;;;1.30;0.77;;;17.30;75.00;;;;;;5087946;28;20048;-69
2023/03/24 07:02:41;;;;;;;0.95;0.50;;;17.30;74.20;;;;;;5055410;28;20029;-70
2023/03/24 07:05:09;;;;;;;2.28;0.60;;;17.30;73.80;;;;;;5054184;28;20044;-69
2023/03/24 07:07:36;;;;;;;2.25;0.57;;;17.30;73.60;;;;;;5087115;28;20496;-69
2023/03/24 07:10:02;;;;;;;1.38;0.55;;;17.30;73.40;;;;;;5087640;28;20032;-69
2023/03/24 07:12:28;;;;;;;1.33;0.52;;;17.30;73.20;;;;;;5087690;28;20013;-69
2023/03/24 07:14:54;;;;;;;1.58;0.70;;;17.30;73.10;;;;;;5071037;28;20029;-69
2023/03/24 07:17:20;;;;;;;1.60;0.65;;;17.30;73.00;;;;;;5034108;28;20461;-69
2023/03/24 07:19:46;;;;;;;2.38;0.60;;;17.30;72.90;;;;;;5035039;28;20059;-69
2023/03/24 07:22:12;;;;;;;1.40;0.50;;;17.30;72.80;;;;;;5067205;28;20456;-69
2023/03/24 07:24:37;;;;;;;1.27;0.50;;;17.30;72.80;;;;;;5050527;28;20065;-69
2023/03/24 07:27:03;;;;;;;2.67;0.52;;;17.30;72.80;;;;;;5067391;28;20075;-69
2023/03/24 07:29:29;;;;;;;2.10;0.75;;;17.30;72.80;;;;;;5067156;28;20482;-69
2023/03/24 07:31:57;;;;;;;1.20;0.52;;;17.30;72.70;;;;;;5066972;28;20032;-69
2023/03/24 07:34:24;;;;;;;3.70;0.85;;;17.30;72.80;;;;;;5066225;28;20432;-72
2023/03/24 07:36:50;;;;;;;12.02;1.38;;;17.40;73.00;;;;;;5066771;28;20024;-73
2023/03/24 07:39:16;;;;;;;4.32;0.93;;;17.40;73.90;;;;;;5066668;28;20041;-72
2023/03/24 07:41:42;;;;;;;7.95;1.20;;;17.40;74.10;;;;;;5063880;28;20026;-73
2023/03/24 07:44:08;;;;;;;5.45;0.93;;;17.40;74.10;;;;;;5065518;28;20029;-73
2023/03/24 07:46:33;;;;;;;4.65;1.35;;;17.40;74.20;;;;;;5049216;28;20029;-73
2023/03/24 07:49:00;;;;;;;6.82;1.30;;;17.40;74.20;;;;;;5078580;28;20043;-72
2023/03/24 07:51:26;;;;;;;9.85;1.20;;;17.40;74.50;;;;;;5053822;28;20051;-72
2023/03/24 07:53:52;;;;;;;4.57;1.17;;;17.40;73.90;;;;;;5035673;28;20108;-72
2023/03/24 07:56:17;;;;;;;3.13;1.25;;;17.40;73.80;;;;;;5053357;28;20503;-72
2023/03/24 07:58:43;;;;;;;3.47;0.80;;;17.40;73.70;;;;;;5053142;28;20035;-72
2023/03/24 08:01:09;;;;;;;3.53;0.95;;;17.40;73.70;;;;;;5053202;28;20027;-73
2023/03/24 08:03:35;;;;;;;2.47;1.00;;;17.40;73.60;;;;;;5053027;28;20039;-72
2023/03/24 08:06:02;;;;;;;6.28;1.50;;;17.40;73.50;;;;;;5053015;28;20489;-73
2023/03/24 08:08:28;;;;;;;4.00;1.10;;;17.40;73.40;;;;;;5054294;28;20489;-72
2023/03/24 08:10:54;;;;;;;2.60;1.17;;;17.40;73.20;;;;;;5053957;28;20047;-73
2023/03/24 08:13:20;;;;;;;5.10;1.02;;;17.40;73.20;;;;;;5054124;28;20074;-73
2023/03/24 08:15:45;;;;;;;4.35;1.10;;;17.50;73.10;;;;;;5054078;28;20024;-72
2023/03/24 08:18:11;;;;;;;4.47;1.20;;;17.40;73.00;;;;;;5053032;28;20074;-72
2023/03/24 08:20:37;;;;;;;2.15;0.80;;;17.40;72.90;;;;;;5052862;28;20041;-73
2023/03/24 08:23:03;;;;;;;4.82;1.25;;;17.40;72.80;;;;;;5052876;28;20082;-73
2023/03/24 08:25:29;;;;;;;3.17;0.80;;;17.40;72.80;;;;;;5052734;28;20017;-72
2023/03/24 08:27:55;;;;;;;2.70;1.13;;;17.40;72.70;;;;;;5052664;28;20043;-73
2023/03/24 08:30:22;;;;;;;3.90;1.02;;;17.50;72.70;;;;;;5052656;28;20029;-73
2023/03/24 08:32:52;;;;;;;3.38;1.00;;;17.40;72.70;;;;;;5052547;28;20021;-73
2023/03/24 08:35:20;;;;;;;4.47;1.00;;;17.40;72.70;;;;;;5052660;28;20500;-73
2023/03/24 08:37:46;;;;;;;3.72;1.05;;;17.40;72.60;;;;;;5052594;28;20025;-72
2023/03/24 08:40:18;;;;;;;2.22;1.10;;;17.40;72.50;;;;;;5052347;28;20508;-73
2023/03/24 08:42:48;;;;;;;2.10;0.70;;;17.40;72.50;;;;;;5052457;28;20025;-73
2023/03/24 08:45:14;;;;;;;3.95;1.00;;;17.40;72.50;;;;;;5052462;28;20032;-73
2023/03/24 08:47:40;;;;;;;3.08;0.80;;;17.40;72.50;;;;;;5052195;28;20413;-73
2023/03/24 08:50:06;;;;;;;3.33;1.25;;;17.40;72.40;;;;;;5035601;28;20033;-73
2023/03/24 08:52:32;;;;;;;3.55;1.10;;;17.40;72.40;;;;;;5051865;28;20049;-73
2023/03/24 08:54:58;;;;;;;3.50;0.93;;;17.40;72.40;;;;;;5053128;28;20029;-73
2023/03/24 08:57:24;;;;;;;3.03;1.23;;;17.40;72.40;;;;;;5052190;28;20021;-72
2023/03/24 08:59:49;;;;;;;3.42;0.82;;;17.50;72.40;;;;;;5051894;28;20032;-73
2023/03/24 09:02:15;;;;;;;5.07;1.45;;;17.40;72.30;;;;;;5053337;28;20028;-72
2023/03/24 09:04:41;;;;;;;2.88;0.80;;;17.50;72.40;;;;;;5051891;28;20040;-73
2023/03/24 09:07:08;;;;;;;3.03;1.10;;;17.40;72.40;;;;;;5053277;28;20027;-73
2023/03/24 09:09:33;;;;;;;3.47;1.00;;;17.50;72.40;;;;;;5051896;28;20039;-72
2023/03/24 09:11:59;;;;;;;3.05;0.93;;;17.40;72.40;;;;;;5052940;28;20096;-73
2023/03/24 09:14:25;;;;;;;2.65;0.85;;;17.50;72.40;;;;;;5039704;28;20036;-73
2023/03/24 09:16:51;;;;;;;3.17;1.20;;;17.50;72.50;;;;;;5048458;28;20018;-73
2023/03/24 09:19:17;;;;;;;3.47;1.23;;;17.40;72.40;;;;;;5032888;28;20044;-73
2023/03/24 09:21:46;;;;;;;2.47;0.88;;;17.50;72.40;;;;;;5064640;28;20481;-72
2023/03/24 09:24:12;;;;;;;2.17;1.10;;;17.50;72.40;;;;;;5048109;28;20029;-73
2023/03/24 09:26:37;;;;;;;3.75;1.10;;;17.50;72.40;;;;;;5048317;28;20382;-73
2023/03/24 09:29:03;;;;;;;3.20;1.63;;;17.50;72.40;;;;;;5032902;28;20094;-73
2023/03/24 09:31:29;;;;;;;2.60;0.73;;;17.50;72.40;;;;;;5032910;28;20029;-73
2023/03/24 09:33:55;;;;;;;2.75;1.00;;;17.40;72.30;;;;;;5064629;28;20036;-72
2023/03/24 09:36:20;;;;;;;2.40;0.88;;;17.50;72.30;;;;;;5032842;28;20032;-73
2023/03/24 09:38:46;;;;;;;2.25;0.80;;;17.40;72.30;;;;;;5032402;28;20025;-72
2023/03/24 09:41:28;;;;;;;2.22;0.95;;;17.50;72.40;;;;;;5032793;28;20421;-73
2023/03/24 09:43:56;;;;;;;2.38;1.27;;;17.50;72.30;;;;;;5046397;28;20029;-72
2023/03/24 09:46:34;;;;;;;2.67;1.00;;;17.50;72.30;;;;;;5032776;28;20029;-73
2023/03/24 09:49:00;;;;;;;3.17;1.05;;;17.40;72.20;;;;;;5077133;28;20032;-73
2023/03/24 09:51:26;;;;;;;3.25;1.10;;;17.50;72.30;;;;;;5051227;28;20044;-72
2023/03/24 09:53:56;;;;;;;1.25;0.75;;;17.40;72.20;;;;;;5052002;28;20029;-73
2023/03/24 09:56:22;;;;;;;1.88;0.77;;;17.40;72.30;;;;;;5034497;28;20031;-73
2023/03/24 09:58:52;;;;;;;2.78;1.08;;;17.50;72.30;;;;;;5051056;28;20411;-72
2023/03/24 10:01:17;;;;;;;3.67;1.05;;;17.50;72.20;;;;;;5051252;28;20024;-72
2023/03/24 10:03:43;;;;;;;3.05;1.10;;;17.40;72.20;;;;;;5050939;28;20086;-72
2023/03/24 10:06:10;;;;;;;4.63;0.98;;;17.50;72.20;;;;;;5050458;28;20021;-73
2023/03/24 10:08:40;;;;;;;3.00;1.00;;;17.50;72.20;;;;;;5050877;28;20025;-73
2023/03/24 10:11:19;;;;;;;4.20;0.85;;;17.40;72.10;;;;;;5050817;28;20021;-73
2023/03/24 10:14:26;;;;;;;2.78;1.17;;;17.50;72.20;;;;;;5050765;28;20021;-73
2023/03/24 10:17:16;;;;;;;2.85;0.95;;;17.50;72.20;;;;;;5050091;28;20048;-73
2023/03/24 10:19:51;;;;;;;2.85;0.80;;;17.50;72.10;;;;;;5049828;28;20037;-73
2023/03/24 10:22:37;;;;;;;2.72;0.98;;;17.40;72.00;;;;;;5033169;28;20500;-72
2023/03/24 10:25:25;;;;;;;2.10;0.80;;;17.50;72.00;;;;;;5033225;28;20500;-73
2023/03/24 10:27:58;;;;;;;2.65;1.00;;;17.40;72.00;;;;;;5033265;28;20024;-73
2023/03/24 10:30:27;;;;;;;3.00;1.05;;;17.40;73.00;;;;;;5050342;28;20563;-72
2023/03/24 10:32:53;;;;;;;4.30;1.23;;;17.50;72.00;;;;;;5049832;28;20051;-73
2023/03/24 10:35:28;;;;;;;3.72;1.02;;;17.40;71.90;;;;;;5033217;28;20040;-72
2023/03/24 10:37:56;;;;;;;1.30;0.50;;;17.40;71.90;;;;;;5050127;28;20055;-73
2023/03/24 10:40:27;;;;;;;1.75;1.00;;;17.50;72.00;;;;;;5033642;28;20025;-72
2023/03/24 10:42:52;;;;;;;2.85;0.70;;;17.50;71.90;;;;;;5033172;28;20028;-72
2023/03/24 10:45:46;;;;;;;2.10;0.80;;;17.50;72.00;;;;;;5049628;28;20424;-73
2023/03/24 10:48:12;;;;;;;2.67;0.85;;;17.50;71.80;;;;;;5042674;28;20080;-73
2023/03/24 10:50:42;;;;;;;4.32;1.10;;;17.40;71.70;;;;;;5026920;28;20151;-73
2023/03/24 10:53:14;;;;;;;2.90;1.10;;;17.40;71.60;;;;;;5050498;28;20049;-72
2023/03/24 10:55:42;;;;;;;1.38;0.60;;;17.50;71.70;;;;;;5050572;28;20029;-72
2023/03/24 10:58:16;;;;;;;1.33;0.70;;;17.50;71.70;;;;;;5034095;28;20024;-73
2023/03/24 11:00:42;;;;;;;2.67;1.23;;;17.50;71.50;;;;;;5034401;28;20017;-73
2023/03/24 11:03:11;;;;;;;2.67;1.27;;;17.40;71.50;;;;;;5033946;28;20025;-72
2023/03/24 11:05:37;;;;;;;2.15;0.80;;;17.50;71.50;;;;;;5033967;28;20025;-72
2023/03/24 11:08:30;;;;;;;1.92;0.85;;;17.50;71.50;;;;;;5033776;28;20626;-72
2023/03/24 11:10:55;;;;;;;2.33;0.80;;;17.40;71.40;;;;;;5050683;28;20029;-72
2023/03/24 11:13:32;;;;;;;2.05;0.90;;;17.40;71.40;;;;;;5050366;28;20632;-72
2023/03/24 11:16:12;;;;;;;2.88;1.00;;;17.40;71.40;;;;;;5051141;28;20049;-73
2023/03/24 11:18:59;;;;;;;1.98;0.80;;;17.40;71.30;;;;;;5054141;28;20032;-73
2023/03/24 11:21:27;;;;;;;2.13;1.08;;;17.40;71.40;;;;;;5054045;28;20100;-73
2023/03/24 11:23:52;;;;;;;1.73;0.77;;;17.40;71.40;;;;;;5053948;28;20025;-72
2023/03/24 11:26:35;;;;;;;1.95;0.73;;;17.40;71.30;;;;;;5054130;28;20032;-72
2023/03/24 11:29:06;;;;;;;1.92;0.82;;;17.40;71.30;;;;;;5053729;28;20025;-72
2023/03/24 11:31:37;;;;;;;3.33;0.73;;;17.40;71.30;;;;;;5053940;28;20063;-73
2023/03/24 11:34:18;;;;;;;1.90;0.70;;;17.40;71.20;;;;;;5053356;28;20029;-73
2023/03/24 11:36:47;;;;;;;2.30;1.02;;;17.40;71.20;;;;;;5054039;28;20017;-73
2023/03/24 11:39:32;;;;;;;4.40;1.15;;;17.40;71.10;;;;;;5054791;28;20044;-73
2023/03/24 11:42:00;;;;;;;2.00;0.75;;;17.40;71.20;;;;;;5053527;28;20024;-73
2023/03/24 11:44:28;;;;;;;2.25;0.75;;;17.40;71.10;;;;;;5053565;28;20032;-73
2023/03/24 11:47:08;;;;;;;2.40;0.90;;;17.40;71.10;;;;;;5053803;28;20108;-72
2023/03/24 11:49:56;;;;;;;1.80;0.70;;;17.40;71.00;;;;;;5053144;28;20055;-73
2023/03/24 11:52:28;;;;;;;2.90;0.98;;;17.40;71.10;;;;;;5066818;28;20060;-73
2023/03/24 11:54:54;;;;;;;1.88;0.95;;;17.40;71.10;;;;;;5069519;28;20029;-73
2023/03/24 11:57:55;;;;;;;3.20;0.88;;;17.40;71.00;;;;;;5069769;28;20028;-73
2023/03/24 12:00:24;;;;;;;1.25;0.40;;;17.40;71.00;;;;;;5076730;28;20117;-73
2023/03/24 12:03:36;;;;;;;1.80;0.60;;;17.40;71.00;;;;;;5069484;28;20035;-73
2023/03/24 12:06:28;;;;;;;3.50;0.73;;;17.40;70.90;;;;;;5052181;28;20150;-72
2023/03/24 12:09:16;;;;;;;2.08;0.77;;;17.40;71.00;;;;;;5020094;28;20020;-73
2023/03/24 12:12:00;;;;;;;3.58;0.70;;;17.40;71.00;;;;;;5052199;28;20033;-73
2023/03/24 12:14:46;;;;;;;2.17;0.80;;;17.40;70.90;;;;;;5039798;28;20159;-72
2023/03/24 12:17:11;;;;;;;2.20;0.63;;;17.40;70.90;;;;;;4992542;28;20039;-72
2023/03/24 12:19:55;;;;;;;2.30;0.90;;;17.40;70.90;;;;;;4992630;28;20031;-73
2023/03/24 12:22:27;;;;;;;2.40;0.70;;;17.40;70.90;;;;;;4976747;28;20039;-73
2023/03/24 12:24:52;;;;;;;3.15;1.10;;;17.40;70.90;;;;;;4992649;28;20061;-73
2023/03/24 12:27:56;;;;;;;2.85;0.82;;;17.40;70.90;;;;;;4991971;28;20047;-73
2023/03/24 12:30:33;;;;;;;2.35;0.70;;;17.40;70.80;;;;;;4953560;29;20118;-73
2023/03/24 12:33:18;;;;;;;3.50;0.77;;;17.40;70.80;;;;;;4953454;29;20078;-73
2023/03/24 12:35:44;;;;;;;2.08;1.05;;;17.40;70.80;;;;;;4953633;29;20066;-73
2023/03/24 12:38:25;;;;;;;2.33;0.77;;;17.40;70.70;;;;;;4953582;29;20451;-73
2023/03/24 12:41:12;;;;;;;2.70;0.88;;;17.40;70.70;;;;;;4938013;29;20073;-73
2023/03/24 12:44:08;;;;;;;3.40;0.82;;;17.40;70.70;;;;;;4953367;29;20032;-73
2023/03/24 12:46:41;;;;;;;2.28;0.88;;;17.40;70.70;;;;;;4967032;28;20082;-72
2023/03/24 12:49:25;;;;;;;;;;;17.50;70.70;;;;;;4953610;28;20035;-73
2023/03/24 12:52:05;;;;;;;1.85;0.90;;;17.40;70.60;;;;;;4953277;29;20473;-73
2023/03/24 12:54:53;;;;;;;2.85;0.90;;;17.40;70.60;;;;;;4999072;28;20045;-72
2023/03/24 12:57:20;;;;;;;2.08;0.85;;;17.40;70.60;;;;;;5015999;28;20056;-73
2023/03/24 13:00:00;;;;;;;2.13;0.80;;;17.40;70.60;;;;;;5015065;28;20029;-73
2023/03/24 13:02:29;;;;;;;1.77;0.80;;;17.40;70.50;;;;;;5015556;28;20537;-73
2023/03/24 13:04:58;;;;;;;3.03;1.10;;;17.40;70.50;;;;;;5014862;28;20033;-73
2023/03/24 13:07:27;;;;;;;3.53;1.25;;;17.40;70.30;;;;;;5027484;28;20087;-73